Time;durP1;ratioP1;P1;durP2;ratioP2;P2;SDS_P1;SDS_P2;PMS_P1;PMS_P2;Temp;Humidity;BMP_temperature;BMP_pressure;BME280_temperature;BME280_humidity;BME280_pressure;Samples;Min_cycle;Max_cycle;Signal;HPM_P1;HPM_P2
2023/01/28 00:00:52;;;;;;;7.50;6.65;;;;;;;-0.87;68.63;93167.56;4981225;28;20061;-77
2023/01/28 00:03:17;;;;;;;10.77;7.97;;;;;;;-0.75;68.18;93172.56;4980447;28;20030;-78
2023/01/28 00:05:43;;;;;;;11.93;8.77;;;;;;;-0.59;68.19;93208.09;4982012;28;20157;-79
2023/01/28 00:08:10;;;;;;;10.88;8.32;;;;;;;-0.67;68.96;93206.78;4980795;28;20046;-80
2023/01/28 00:10:38;;;;;;;8.73;6.97;;;;;;;-0.69;68.91;93210.69;4980892;28;20092;-78
2023/01/28 00:13:04;;;;;;;6.75;6.00;;;;;;;-0.65;69.01;93214.34;4979454;28;20033;-78
2023/01/28 00:15:30;;;;;;;7.47;5.97;;;;;;;-0.51;68.89;93221.44;4982104;28;20030;-79
2023/01/28 00:17:55;;;;;;;6.78;5.60;;;;;;;-0.57;67.96;93200.78;4982845;28;20041;-80
2023/01/28 00:20:21;;;;;;;7.00;5.88;;;;;;;-0.38;67.21;93214.91;4981720;28;20407;-79
2023/01/28 00:22:49;;;;;;;6.43;5.80;;;;;;;-0.31;66.73;93231.13;4982254;28;20066;-80
2023/01/28 00:25:15;;;;;;;6.70;6.05;;;;;;;-0.54;67.71;93213.34;4980795;28;20160;-81
2023/01/28 00:27:40;;;;;;;7.43;6.32;;;;;;;-0.49;67.82;93208.13;4953850;28;20034;-80
2023/01/28 00:30:06;;;;;;;7.65;6.82;;;;;;;-0.43;67.90;93211.53;4981685;28;20364;-80
2023/01/28 00:32:32;;;;;;;8.50;6.88;;;;;;;-0.23;66.81;93225.38;4980863;28;20045;-80
2023/01/28 00:34:57;;;;;;;7.30;6.10;;;;;;;-0.04;65.46;93228.28;4981426;28;20047;-80
2023/01/28 00:37:22;;;;;;;6.32;5.28;;;;;;;-0.32;65.97;93234.78;4964420;28;20554;-80
2023/01/28 00:39:48;;;;;;;7.65;6.70;;;;;;;-0.40;67.00;93243.16;4974349;28;20135;-81
2023/01/28 00:42:15;;;;;;;8.32;6.95;;;;;;;-0.43;67.57;93243.66;4981812;28;20034;-79
2023/01/28 00:44:40;;;;;;;7.47;6.68;;;;;;;-0.40;67.11;93240.53;4962968;28;20498;-79
2023/01/28 00:47:06;;;;;;;7.97;6.95;;;;;;;-0.47;67.50;93221.69;4980058;28;20057;-78
2023/01/28 00:49:31;;;;;;;7.32;6.20;;;;;;;-0.36;66.62;93233.75;4981800;28;20041;-78
2023/01/28 00:51:57;;;;;;;8.20;5.93;;;;;;;-0.45;66.57;93245.75;4979322;28;21232;-80
2023/01/28 00:54:22;;;;;;;7.65;5.93;;;;;;;-0.84;67.11;93201.00;4979452;28;20038;-79
2023/01/28 00:56:47;;;;;;;7.80;6.93;;;;;;;-0.48;67.44;93251.47;4980238;28;20494;-81
2023/01/28 00:59:13;;;;;;;10.85;8.02;;;;;;;-0.49;67.38;93243.91;4980713;28;20034;-80
2023/01/28 01:01:38;;;;;;;11.57;7.97;;;;;;;-0.47;67.28;93239.19;4981122;28;20430;-79
2023/01/28 01:04:04;;;;;;;9.98;7.82;;;;;;;-0.23;67.01;93251.53;4979831;28;20042;-80
2023/01/28 01:06:32;;;;;;;8.18;6.57;;;;;;;-0.29;66.14;93229.06;4981839;28;20038;-80
2023/01/28 01:08:58;;;;;;;7.15;6.05;;;;;;;-0.28;65.41;93219.38;4979085;28;20065;-80
2023/01/28 01:11:23;;;;;;;8.38;6.72;;;;;;;-0.30;65.88;93253.63;4981551;28;20712;-80
2023/01/28 01:13:59;;;;;;;9.70;8.70;;;;;;;-0.69;66.64;93240.22;4980897;28;20038;-80
2023/01/28 01:16:28;;;;;;;7.03;6.07;;;;;;;-0.83;68.11;93243.56;4963374;28;20652;-80
2023/01/28 01:18:55;;;;;;;8.00;6.38;;;;;;;-0.69;68.58;93252.47;4979427;28;20061;-79
2023/01/28 01:21:23;;;;;;;6.82;5.97;;;;;;;-0.58;67.63;93254.09;4980409;28;20100;-80
2023/01/28 01:23:50;;;;;;;9.43;7.15;;;;;;;-0.65;67.53;93258.75;4981979;28;20065;-81
2023/01/28 01:26:16;;;;;;;7.43;6.50;;;;;;;-0.86;68.08;93238.84;4979517;28;20034;-78
2023/01/28 01:28:41;;;;;;;7.55;5.50;;;;;;;-0.66;68.51;93259.78;4980371;28;20046;-78
2023/01/28 01:31:16;;;;;;;7.15;6.05;;;;;;;-0.63;68.29;93264.50;4979415;28;20318;-79
2023/01/28 01:33:43;;;;;;;6.55;5.85;;;;;;;-0.70;68.63;93250.91;4980351;28;20707;-79
2023/01/28 01:36:10;;;;;;;6.63;5.82;;;;;;;-0.60;67.64;93264.78;4976983;28;20022;-75
2023/01/28 01:38:35;;;;;;;7.32;5.47;;;;;;;-0.72;67.63;93239.91;4977148;28;20106;-79
2023/01/28 01:41:02;;;;;;;15.52;10.02;;;;;;;-0.53;67.64;93261.91;4975196;28;20046;-78
2023/01/28 01:43:51;;;;;;;8.70;7.22;;;;;;;-0.46;67.53;93264.28;4975770;28;20035;-80
2023/01/28 01:46:40;;;;;;;7.70;6.50;;;;;;;-0.75;67.72;93245.66;4976895;28;20073;-79
2023/01/28 01:49:22;;;;;;;6.78;5.93;;;;;;;-0.98;68.29;93211.16;4962201;28;20026;-78
2023/01/28 01:51:53;;;;;;;8.68;6.75;;;;;;;-1.08;68.42;93205.09;4977624;28;20034;-79
2023/01/28 01:54:22;;;;;;;8.02;6.63;;;;;;;-0.80;68.10;93232.59;4982121;28;20125;-78
2023/01/28 01:56:49;;;;;;;8.32;6.35;;;;;;;-0.79;67.85;93242.00;4977236;28;20053;-79
2023/01/28 01:59:25;;;;;;;5.97;5.35;;;;;;;-0.91;68.13;93244.03;4953624;28;20066;-78
2023/01/28 02:01:51;;;;;;;7.97;7.18;;;;;;;-0.83;68.90;93243.56;4978047;28;20640;-78
2023/01/28 02:04:27;;;;;;;6.88;6.18;;;;;;;-0.98;68.50;93259.94;4979650;28;20087;-79
2023/01/28 02:06:54;;;;;;;7.40;6.30;;;;;;;-1.11;69.64;93237.69;4980162;28;20041;-78
2023/01/28 02:09:24;;;;;;;7.88;6.15;;;;;;;-0.91;69.55;93257.09;4978998;28;20030;-78
2023/01/28 02:12:11;;;;;;;9.13;6.75;;;;;;;-0.94;69.10;93247.94;4978585;28;20042;-78
2023/01/28 02:14:43;;;;;;;7.57;6.32;;;;;;;-0.98;68.40;93226.81;4974823;28;20105;-78
2023/01/28 02:17:08;;;;;;;8.00;6.43;;;;;;;-0.89;68.50;93260.22;4960931;28;20057;-78
2023/01/28 02:19:40;;;;;;;8.48;6.72;;;;;;;-0.96;68.78;93266.47;4979430;28;20034;-81
2023/01/28 02:22:41;;;;;;;8.05;5.95;;;;;;;-0.98;69.33;93271.19;4976530;28;20104;-79
2023/01/28 02:25:25;;;;;;;6.93;5.85;;;;;;;-1.12;69.30;93275.25;4929985;28;20065;-79
2023/01/28 02:28:07;;;;;;;7.72;5.93;;;;;;;-0.97;69.71;93275.34;4950122;28;20213;-80
2023/01/28 02:30:37;;;;;;;8.10;6.30;;;;;;;-1.10;68.83;93259.34;4960340;28;20453;-78
2023/01/28 02:33:43;;;;;;;12.23;7.95;;;;;;;-1.09;69.38;93277.38;4979187;28;20030;-79
2023/01/28 02:36:19;;;;;;;6.20;5.60;;;;;;;-1.07;69.47;93259.63;4977510;28;20050;-78
2023/01/28 02:38:48;;;;;;;6.25;5.32;;;;;;;-1.03;69.37;93260.72;4978722;28;20042;-79
2023/01/28 02:41:36;;;;;;;16.75;9.88;;;;;;;-1.10;68.49;93257.53;4959882;28;20455;-80
2023/01/28 02:44:02;;;;;;;8.38;6.38;;;;;;;-1.24;69.24;93253.81;4978716;28;20039;-80
2023/01/28 02:49:17;;;;;;;6.80;6.07;;;;;;;-1.01;69.14;93269.06;4979485;28;20105;-78
2023/01/28 02:51:45;;;;;;;8.50;6.28;;;;;;;-0.89;68.76;93281.91;4960887;28;20030;-80
2023/01/28 02:54:17;;;;;;;7.22;6.00;;;;;;;-0.93;68.59;93254.75;4979748;28;20596;-80
2023/01/28 02:57:07;;;;;;;7.72;6.38;;;;;;;-0.75;67.72;93274.38;4959356;28;20266;-80
2023/01/28 02:59:44;;;;;;;8.63;6.85;;;;;;;-0.85;67.57;93243.00;4978953;28;20038;-79
2023/01/28 03:02:33;;;;;;;7.93;6.68;;;;;;;-0.76;67.14;93250.09;4960718;28;20503;-80
2023/01/28 03:05:04;;;;;;;8.77;6.47;;;;;;;-0.49;67.29;93285.72;4975858;28;20038;-79
2023/01/28 03:07:32;;;;;;;7.47;6.63;;;;;;;-0.52;66.77;93266.88;4978715;28;20104;-79
2023/01/28 03:10:03;;;;;;;7.47;5.82;;;;;;;-0.45;66.04;93281.53;4977984;28;20035;-80
2023/01/28 03:38:17;;;;;;;7.97;7.07;;;;;;;-1.18;68.35;93268.47;4976951;28;20057;-79
2023/01/28 03:40:59;;;;;;;8.00;6.50;;;;;;;-1.22;68.10;93267.41;4975661;28;20042;-79
2023/01/28 03:43:25;;;;;;;8.27;7.47;;;;;;;-1.36;68.96;93302.78;4975561;28;20049;-81
2023/01/28 03:45:51;;;;;;;8.77;7.45;;;;;;;-1.43;69.09;93279.53;4976999;28;20026;-79
2023/01/28 03:48:22;;;;;;;8.38;6.47;;;;;;;-1.45;69.43;93293.84;4977254;28;20041;-79
2023/01/28 03:50:48;;;;;;;7.82;6.93;;;;;;;-1.58;70.01;93289.09;4976233;28;20237;-79
2023/01/28 03:53:15;;;;;;;6.75;6.05;;;;;;;-1.41;69.65;93292.34;4978242;28;20046;-77
2023/01/28 03:55:41;;;;;;;8.23;6.47;;;;;;;-1.35;68.98;93303.56;4977535;28;20030;-79
2023/01/28 03:58:08;;;;;;;8.45;6.57;;;;;;;-1.38;68.96;93303.06;4979219;28;20026;-79
2023/01/28 04:00:36;;;;;;;9.63;7.50;;;;;;;-1.47;68.77;93288.13;4978615;28;20422;-79
2023/01/28 04:03:14;;;;;;;7.70;6.68;;;;;;;-1.60;69.25;93285.94;4980019;28;20042;-79
2023/01/28 04:05:41;;;;;;;8.15;7.35;;;;;;;-1.57;69.26;93312.31;4980113;28;20125;-77
2023/01/28 04:08:07;;;;;;;7.78;6.57;;;;;;;-1.80;70.00;93304.06;4964615;28;20065;-79
2023/01/28 04:10:32;;;;;;;7.18;6.32;;;;;;;-1.79;70.38;93293.34;4981229;28;20042;-80
2023/01/28 04:12:57;;;;;;;9.32;6.70;;;;;;;-1.73;70.53;93309.81;4980131;28;20038;-80
2023/01/28 04:15:23;;;;;;;6.97;6.28;;;;;;;-1.73;70.31;93313.22;4981690;28;20250;-80
2023/01/28 04:17:48;;;;;;;7.68;6.00;;;;;;;-1.93;70.42;93298.19;4978296;28;20053;-79
2023/01/28 04:20:14;;;;;;;7.25;6.03;;;;;;;-1.68;70.48;93320.28;4982947;28;20576;-79
2023/01/28 04:22:40;;;;;;;6.88;6.05;;;;;;;-1.86;69.78;93288.38;4961325;28;20923;-80
2023/01/28 04:25:06;;;;;;;6.38;5.78;;;;;;;-1.69;69.86;93300.47;4981751;28;20045;-79
2023/01/28 04:27:31;;;;;;;7.45;6.47;;;;;;;-1.61;69.24;93289.59;4979830;28;20153;-80
2023/01/28 04:29:57;;;;;;;6.53;5.85;;;;;;;-1.59;68.52;93277.06;4982803;28;20038;-80
2023/01/28 04:32:22;;;;;;;7.55;6.45;;;;;;;-1.14;67.49;93321.72;4979273;28;20037;-79
2023/01/28 04:34:47;;;;;;;7.38;6.47;;;;;;;-1.20;67.54;93308.88;4965104;28;20034;-79
2023/01/28 04:37:13;;;;;;;8.23;6.28;;;;;;;-1.30;67.30;93307.00;4955480;28;20039;-80
2023/01/28 04:39:38;;;;;;;8.25;6.15;;;;;;;-1.16;67.86;93334.22;4963349;28;20030;-78
2023/01/28 04:42:04;;;;;;;7.70;6.50;;;;;;;-1.15;66.96;93320.13;4982816;28;20475;-81
2023/01/28 04:44:29;;;;;;;8.27;7.05;;;;;;;-0.90;66.40;93337.75;4981337;28;20964;-81
2023/01/28 04:46:54;;;;;;;10.27;6.35;;;;;;;-0.95;66.56;93345.56;4961271;28;20332;-79
2023/01/28 04:49:20;;;;;;;7.95;6.85;;;;;;;-0.82;66.31;93350.31;4980208;28;20034;-79
2023/01/28 04:51:45;;;;;;;9.55;7.00;;;;;;;-1.40;66.31;93292.06;4977470;28;20014;-79
2023/01/28 04:54:11;;;;;;;8.95;6.90;;;;;;;-1.39;67.61;93303.28;4965478;28;20034;-81
2023/01/28 04:56:36;;;;;;;7.28;6.57;;;;;;;-1.05;67.22;93338.47;4978358;28;20375;-80
2023/01/28 04:59:02;;;;;;;7.63;6.45;;;;;;;-0.93;66.86;93337.50;4963575;28;20030;-79
2023/01/28 05:01:27;;;;;;;7.55;6.63;;;;;;;-0.95;66.81;93342.97;4980564;28;20089;-80
2023/01/28 05:03:53;;;;;;;7.75;6.22;;;;;;;-1.00;65.94;93342.94;4979975;28;20022;-80
2023/01/28 05:06:18;;;;;;;7.10;5.70;;;;;;;-1.43;66.15;93310.84;4980883;28;20104;-79
2023/01/28 05:08:45;;;;;;;9.05;6.28;;;;;;;-1.34;67.61;93341.66;4979590;28;20156;-79
2023/01/28 05:11:11;;;;;;;6.53;5.93;;;;;;;-1.29;68.07;93355.53;4977715;28;20503;-80
2023/01/28 05:13:37;;;;;;;8.20;6.60;;;;;;;-1.31;67.33;93347.16;4980653;28;20049;-80
2023/01/28 05:16:02;;;;;;;9.90;7.90;;;;;;;-1.15;68.13;93364.50;4978380;28;20038;-80
2023/01/28 05:18:28;;;;;;;8.00;6.88;;;;;;;-1.30;67.44;93367.00;4980738;28;20041;-79
2023/01/28 05:20:53;;;;;;;8.77;7.18;;;;;;;-1.24;67.30;93373.03;4961625;28;20647;-79
2023/01/28 05:23:19;;;;;;;8.93;7.07;;;;;;;-1.36;67.91;93367.25;4981450;28;20038;-80
2023/01/28 05:25:44;;;;;;;9.30;7.53;;;;;;;-1.46;68.01;93373.91;4979713;28;20057;-79
2023/01/28 05:28:10;;;;;;;8.88;7.95;;;;;;;-1.54;68.71;93373.59;4979614;28;20038;-80
2023/01/28 05:30:37;;;;;;;8.20;6.70;;;;;;;-1.41;68.38;93379.19;4979711;28;20110;-80
2023/01/28 05:33:02;;;;;;;11.25;10.07;;;;;;;-1.38;68.41;93378.69;4978560;28;20037;-79
2023/01/28 05:35:28;;;;;;;11.57;9.32;;;;;;;-1.39;68.37;93363.28;4980749;28;20038;-79
2023/01/28 05:37:53;;;;;;;7.75;6.95;;;;;;;-1.48;68.46;93373.41;4960335;28;20034;-80
2023/01/28 05:40:19;;;;;;;8.35;7.00;;;;;;;-1.28;67.77;93400.69;4979779;28;20603;-80
2023/01/28 05:42:45;;;;;;;8.85;7.15;;;;;;;-1.36;67.58;93386.25;4979047;28;20034;-79
2023/01/28 05:45:10;;;;;;;9.45;7.55;;;;;;;-1.56;68.03;93360.03;4980549;28;20023;-80
2023/01/28 05:47:36;;;;;;;7.95;6.50;;;;;;;-1.54;67.80;93348.31;4976055;28;20537;-79
2023/01/28 05:50:02;;;;;;;7.50;6.75;;;;;;;-1.23;67.09;93380.63;4976307;28;20565;-79
2023/01/28 05:52:27;;;;;;;9.27;7.57;;;;;;;-1.21;66.86;93391.59;4976614;28;20037;-77
2023/01/28 05:54:53;;;;;;;8.85;7.95;;;;;;;-1.23;67.34;93391.06;4976782;28;20040;-78
2023/01/28 05:57:18;;;;;;;8.48;6.82;;;;;;;-1.44;67.34;93369.25;4978788;28;20027;-79
2023/01/28 05:59:43;;;;;;;9.32;8.32;;;;;;;-1.40;67.95;93380.75;4960639;28;20427;-80
2023/01/28 06:02:09;;;;;;;10.32;8.05;;;;;;;-1.17;67.47;93404.94;4981070;28;20077;-80
2023/01/28 06:04:34;;;;;;;9.55;7.13;;;;;;;-1.31;67.20;93373.25;4979005;28;20030;-79
2023/01/28 06:07:00;;;;;;;9.95;7.50;;;;;;;-1.35;67.01;93374.78;4978851;28;20289;-80
2023/01/28 06:09:25;;;;;;;8.55;7.18;;;;;;;-1.34;67.70;93401.66;4978928;28;20533;-80
2023/01/28 06:11:50;;;;;;;7.72;6.50;;;;;;;-1.69;68.10;93383.91;4979781;28;20030;-80
2023/01/28 06:14:16;;;;;;;8.60;7.70;;;;;;;-1.60;68.61;93398.06;4977188;28;20065;-77
2023/01/28 06:16:41;;;;;;;8.30;6.93;;;;;;;-1.43;68.80;93422.22;4978051;28;20608;-79
2023/01/28 06:19:07;;;;;;;9.55;6.82;;;;;;;-1.33;68.72;93430.13;4978621;28;20058;-80
2023/01/28 06:21:32;;;;;;;7.80;6.60;;;;;;;-1.33;68.72;93411.06;4978750;28;20037;-79
2023/01/28 06:23:58;;;;;;;7.75;6.95;;;;;;;-1.24;67.90;93402.53;4978807;28;20153;-79
2023/01/28 06:26:23;;;;;;;7.40;6.28;;;;;;;-1.03;67.30;93438.19;4978556;28;20509;-79
2023/01/28 06:28:48;;;;;;;8.27;6.72;;;;;;;-1.18;66.61;93404.16;4978069;28;20061;-80
2023/01/28 06:31:14;;;;;;;7.60;6.82;;;;;;;-1.11;66.84;93425.59;4979542;28;20046;-79
2023/01/28 06:33:39;;;;;;;9.30;7.18;;;;;;;-1.08;66.80;93429.53;4977536;28;20027;-80
2023/01/28 06:36:05;;;;;;;11.75;8.05;;;;;;;-1.26;66.98;93425.47;4980740;28;20065;-81
2023/01/28 06:38:31;;;;;;;8.82;7.18;;;;;;;-1.29;67.63;93443.44;4960005;28;20097;-81
2023/01/28 06:40:57;;;;;;;9.73;6.32;;;;;;;-1.47;67.55;93408.88;4977349;28;20125;-77
2023/01/28 06:43:26;;;;;;;8.93;6.78;;;;;;;-1.19;67.88;93457.38;4978796;28;20030;-80
2023/01/28 06:45:56;;;;;;;8.23;6.35;;;;;;;-1.23;68.19;93461.53;4977136;28;20023;-81
2023/01/28 06:48:22;;;;;;;8.43;6.80;;;;;;;-1.19;67.36;93467.81;4979712;28;20046;-80
2023/01/28 06:50:48;;;;;;;10.55;7.93;;;;;;;-1.41;67.61;93452.22;4958475;28;20538;-80
2023/01/28 06:53:14;;;;;;;14.45;11.38;;;;;;;-1.14;67.78;93467.84;4979409;28;20137;-80
2023/01/28 06:55:39;;;;;;;12.13;9.82;;;;;;;-1.25;67.76;93440.09;4976180;28;20034;-79
2023/01/28 06:58:05;;;;;;;12.40;10.30;;;;;;;-1.39;67.14;93418.84;4960230;28;20052;-80
2023/01/28 07:00:30;;;;;;;11.57;10.05;;;;;;;-1.05;67.14;93461.13;4976295;28;20499;-79
2023/01/28 07:02:56;;;;;;;16.60;14.20;;;;;;;-0.92;66.14;93459.16;4961048;28;20565;-79
2023/01/28 07:05:22;;;;;;;16.40;11.73;;;;;;;-0.84;65.89;93487.41;4974082;28;20565;-79
2023/01/28 07:07:47;;;;;;;14.07;9.77;;;;;;;-0.83;66.71;93488.97;4971985;28;20035;-79
2023/01/28 07:10:13;;;;;;;10.38;8.82;;;;;;;-0.99;67.27;93490.69;4969294;28;20046;-77
2023/01/28 07:12:39;;;;;;;15.65;11.25;;;;;;;-0.83;66.86;93499.44;4970415;28;20020;-80
2023/01/28 07:15:05;;;;;;;15.75;11.65;;;;;;;-0.80;66.72;93498.91;4974648;28;20030;-80
2023/01/28 07:17:30;;;;;;;10.80;8.93;;;;;;;-0.86;65.90;93494.69;4974116;28;20332;-81
2023/01/28 07:19:56;;;;;;;12.38;10.35;;;;;;;-0.87;66.67;93490.53;4970693;28;20346;-79
2023/01/28 07:22:21;;;;;;;15.35;13.15;;;;;;;-0.87;66.44;93487.91;4972662;28;20507;-79
2023/01/28 07:24:47;;;;;;;12.13;9.75;;;;;;;-0.85;65.70;93489.22;4972383;28;20034;-79
2023/01/28 07:27:12;;;;;;;10.10;8.07;;;;;;;-1.07;66.58;93515.41;4970984;28;20306;-80
2023/01/28 07:29:37;;;;;;;10.50;9.25;;;;;;;-1.36;67.54;93485.38;4970685;28;20517;-80
2023/01/28 07:32:05;;;;;;;14.27;10.88;;;;;;;-1.37;67.85;93509.91;4970483;28;20405;-80
2023/01/28 07:34:31;;;;;;;13.82;11.52;;;;;;;-1.40;69.07;93516.41;4973306;28;20924;-80
2023/01/28 07:36:57;;;;;;;14.50;11.63;;;;;;;-1.45;68.65;93497.31;4975846;28;20046;-79
2023/01/28 07:39:22;;;;;;;13.18;9.98;;;;;;;-1.27;68.59;93517.84;4978946;28;20022;-79
2023/01/28 07:41:48;;;;;;;12.93;10.50;;;;;;;-1.49;68.75;93491.81;4975154;28;20034;-78
2023/01/28 07:44:13;;;;;;;13.88;10.77;;;;;;;-1.29;68.52;93506.84;4975466;28;20073;-78
2023/01/28 07:46:38;;;;;;;13.50;11.27;;;;;;;-1.08;68.27;93518.28;4977314;28;20528;-80
2023/01/28 07:49:04;;;;;;;25.30;17.83;;;;;;;-0.90;67.30;93530.16;4959382;28;20042;-80
2023/01/28 07:51:29;;;;;;;23.02;18.35;;;;;;;-0.87;66.90;93527.06;4959757;28;20100;-78
2023/01/28 07:53:54;;;;;;;18.38;13.52;;;;;;;-0.90;66.36;93535.38;4978508;28;20049;-80
2023/01/28 07:56:20;;;;;;;18.90;12.18;;;;;;;-1.10;66.95;93541.22;4977787;28;20117;-80
2023/01/28 07:58:48;;;;;;;13.70;11.25;;;;;;;-1.49;67.36;93475.34;4979208;28;20446;-80
2023/01/28 08:01:14;;;;;;;12.38;10.23;;;;;;;-1.05;67.38;93538.66;4979734;28;20046;-81
2023/01/28 08:03:39;;;;;;;13.00;11.32;;;;;;;-0.95;67.09;93536.13;4982829;28;20084;-80
2023/01/28 08:06:05;;;;;;;16.48;13.68;;;;;;;-0.78;66.96;93541.25;4981364;28;20034;-80
2023/01/28 08:08:30;;;;;;;13.20;9.50;;;;;;;-0.90;66.38;93530.16;4980666;28;20125;-80
2023/01/28 08:10:56;;;;;;;18.23;13.48;;;;;;;-0.86;66.49;93531.22;4978813;28;20311;-80
2023/01/28 08:13:21;;;;;;;12.85;9.60;;;;;;;-0.91;65.96;93521.53;4980251;28;20042;-80
2023/01/28 08:15:47;;;;;;;13.93;11.77;;;;;;;-0.59;65.39;93547.66;4978797;28;20497;-79
2023/01/28 08:18:15;;;;;;;11.43;9.10;;;;;;;-0.85;65.43;93551.09;4960592;28;20038;-79
2023/01/28 08:20:43;;;;;;;15.45;11.70;;;;;;;-1.04;66.52;93535.78;4956152;28;20034;-80
2023/01/28 08:23:17;;;;;;;23.27;16.85;;;;;;;-1.04;66.53;93546.25;4977812;28;20508;-80
2023/01/28 08:25:43;;;;;;;15.13;11.65;;;;;;;-1.12;67.65;93536.22;4957733;28;20042;-80
2023/01/28 08:28:10;;;;;;;11.55;9.77;;;;;;;-1.15;67.24;93528.13;4977431;28;20049;-80
2023/01/28 08:30:37;;;;;;;12.10;8.70;;;;;;;-0.91;67.07;93544.25;4981405;28;20109;-81
2023/01/28 08:33:04;;;;;;;14.32;10.68;;;;;;;-0.77;66.98;93561.06;4980304;28;20026;-80
2023/01/28 08:35:29;;;;;;;13.95;10.55;;;;;;;-1.00;66.56;93529.03;4980064;28;20038;-79
2023/01/28 08:37:58;;;;;;;13.75;12.30;;;;;;;-0.80;67.01;93541.47;4978664;28;20042;-80
2023/01/28 08:40:24;;;;;;;10.50;8.32;;;;;;;-0.97;66.30;93533.75;4979202;28;20539;-80
2023/01/28 08:42:51;;;;;;;12.20;9.43;;;;;;;-0.81;66.43;93547.72;4975159;28;20037;-81
2023/01/28 08:45:17;;;;;;;17.20;10.70;;;;;;;-0.85;66.35;93544.03;4976353;28;20026;-80
2023/01/28 08:47:54;;;;;;;11.18;8.80;;;;;;;-0.65;65.97;93556.47;4977047;28;20038;-80
2023/01/28 08:50:21;;;;;;;11.38;8.82;;;;;;;-0.55;65.94;93557.34;4973874;28;20467;-80
2023/01/28 08:52:48;;;;;;;14.15;10.70;;;;;;;-0.61;65.87;93547.91;4976442;28;20406;-80
2023/01/28 08:55:14;;;;;;;11.57;8.85;;;;;;;-0.38;65.33;93554.56;4976034;28;20598;-80
2023/01/28 08:57:40;;;;;;;9.07;8.00;;;;;;;-0.52;65.09;93559.44;4975654;28;20037;-80
2023/01/28 09:00:09;;;;;;;13.55;9.60;;;;;;;-0.46;65.97;93562.88;4957244;28;20026;-81
2023/01/28 09:02:36;;;;;;;13.20;10.02;;;;;;;-0.53;65.89;93544.81;4973937;28;20042;-81
2023/01/28 09:05:02;;;;;;;12.68;9.35;;;;;;;-0.68;65.56;93502.16;4974289;28;20590;-81
2023/01/28 09:07:27;;;;;;;11.95;9.73;;;;;;;-0.36;65.28;93529.00;4972852;28;20069;-80
2023/01/28 09:09:52;;;;;;;11.43;9.30;;;;;;;-0.05;64.74;93557.94;4975280;28;20038;-81
2023/01/28 09:12:18;;;;;;;14.45;10.82;;;;;;;-0.11;64.29;93533.59;4978777;28;20030;-77
2023/01/28 09:14:43;;;;;;;14.07;9.65;;;;;;;-0.07;63.57;93547.72;4973110;28;20366;-79
2023/01/28 09:17:09;;;;;;;12.00;9.10;;;;;;;-0.38;63.59;93507.53;4975635;28;20228;-79
2023/01/28 09:19:34;;;;;;;10.77;9.02;;;;;;;-0.08;64.41;93570.47;4975554;28;20065;-80
2023/01/28 09:22:03;;;;;;;14.13;10.77;;;;;;;-0.20;64.38;93567.25;4975407;28;20487;-78
2023/01/28 09:24:28;;;;;;;21.58;14.65;;;;;;;-0.13;64.84;93570.44;4975145;28;20030;-80
2023/01/28 09:26:53;;;;;;;15.57;11.27;;;;;;;-0.12;65.08;93574.63;4972724;28;20038;-79
2023/01/28 09:29:19;;;;;;;12.77;9.55;;;;;;;-0.04;64.33;93580.44;4971657;28;20034;-79
2023/01/28 09:31:44;;;;;;;11.20;9.25;;;;;;;-0.18;64.07;93562.56;4967757;28;20077;-80
2023/01/28 09:34:09;;;;;;;10.43;8.48;;;;;;;-0.53;64.99;93536.19;4971109;28;20044;-79
2023/01/28 09:36:35;;;;;;;11.75;9.88;;;;;;;-0.41;65.27;93570.78;4972492;28;20030;-80
2023/01/28 09:39:01;;;;;;;11.60;9.13;;;;;;;-0.60;65.21;93533.00;4973627;28;20092;-80
2023/01/28 09:42:08;;;;;;;11.70;9.02;;;;;;;-0.57;65.98;93567.25;4954015;28;20042;-78
2023/01/28 09:44:53;;;;;;;11.00;8.93;;;;;;;-0.49;66.17;93568.63;4955691;28;20062;-78
2023/01/28 09:47:28;;;;;;;13.57;10.65;;;;;;;-0.77;66.26;93550.63;4973216;28;20042;-79
2023/01/28 09:49:58;;;;;;;12.88;10.52;;;;;;;-1.04;66.85;93507.09;4970979;28;20053;-78
2023/01/28 09:52:25;;;;;;;11.75;8.88;;;;;;;-0.80;66.65;93535.47;4974037;28;20042;-76
2023/01/28 09:55:15;;;;;;;14.80;10.25;;;;;;;-0.73;67.00;93554.34;4956932;28;20077;-76
2023/01/28 09:57:52;;;;;;;13.55;9.93;;;;;;;-0.75;66.78;93538.13;4976377;28;20030;-77
2023/01/28 10:00:21;;;;;;;12.50;9.68;;;;;;;-0.73;66.55;93536.84;4970966;28;20037;-79
2023/01/28 10:02:59;;;;;;;13.10;9.88;;;;;;;-0.71;67.17;93558.25;4968332;28;20173;-77
2023/01/28 10:05:27;;;;;;;12.88;9.02;;;;;;;-0.73;67.82;93564.78;4971913;28;20109;-77
2023/01/28 10:08:25;;;;;;;15.45;11.05;;;;;;;-0.69;68.35;93563.25;4972579;28;20041;-78
2023/01/28 10:11:01;;;;;;;18.63;12.32;;;;;;;-0.93;67.95;93531.47;4936414;28;20561;-79
2023/01/28 10:14:00;;;;;;;13.55;10.25;;;;;;;-0.92;68.22;93522.56;4973884;28;20034;-78
2023/01/28 10:17:01;;;;;;;17.50;10.68;;;;;;;-0.67;68.17;93550.72;4967400;28;20451;-78
2023/01/28 10:19:32;;;;;;;13.82;10.85;;;;;;;-0.52;67.95;93548.22;4950483;28;20100;-78
2023/01/28 10:22:04;;;;;;;16.13;10.38;;;;;;;-0.70;67.43;93556.44;4943529;28;20046;-78
2023/01/28 10:24:35;;;;;;;18.23;11.65;;;;;;;-0.78;67.85;93533.41;4969889;28;20042;-77
2023/01/28 10:27:02;;;;;;;22.35;14.20;;;;;;;-0.90;67.70;93524.94;4973786;28;20298;-78
2023/01/28 10:29:34;;;;;;;14.02;10.55;;;;;;;-0.78;67.92;93559.53;4971559;28;20078;-76
2023/01/28 10:32:30;;;;;;;16.48;10.70;;;;;;;-0.75;68.00;93551.19;4973912;28;20188;-77
2023/01/28 10:34:58;;;;;;;;;;;;;;;-0.65;68.42;93564.31;4961106;28;20046;-76
2023/01/28 10:37:24;;;;;;;18.35;11.98;;;;;;;-0.71;68.45;93550.44;4970608;28;20470;-77
2023/01/28 10:39:53;;;;;;;25.75;16.88;;;;;;;-0.71;68.42;93528.75;4970254;28;20104;-77
2023/01/28 10:42:30;;;;;;;17.00;11.95;;;;;;;-0.32;67.16;93560.63;4970473;28;20494;-77
2023/01/28 10:45:04;;;;;;;17.67;13.27;;;;;;;-0.37;66.89;93566.63;4970265;28;20041;-78
2023/01/28 10:47:55;;;;;;;17.60;14.10;;;;;;;-0.42;68.14;93556.13;4953161;28;20042;-78
2023/01/28 10:50:27;;;;;;;17.50;13.70;;;;;;;-0.40;67.88;93548.84;4978281;28;21126;-78
2023/01/28 10:52:56;;;;;;;16.95;12.88;;;;;;;-0.24;67.13;93555.72;4953286;28;20041;-79
2023/01/28 10:55:25;;;;;;;17.08;12.93;;;;;;;-0.41;67.10;93544.63;4979649;28;20092;-76
2023/01/28 10:57:52;;;;;;;17.13;12.23;;;;;;;-0.55;67.37;93538.28;4962331;28;20022;-77
2023/01/28 11:00:24;;;;;;;15.65;11.10;;;;;;;-0.55;68.23;93548.72;4953096;28;20022;-77
2023/01/28 11:02:50;;;;;;;13.88;11.20;;;;;;;-0.56;68.01;93541.91;4976082;28;20092;-76
2023/01/28 11:05:26;;;;;;;17.35;13.75;;;;;;;-0.60;69.03;93535.63;4972137;28;20034;-77
2023/01/28 11:08:04;;;;;;;16.73;12.38;;;;;;;-0.45;68.43;93540.97;4969918;28;20038;-78
2023/01/28 11:10:33;;;;;;;15.18;11.75;;;;;;;-0.41;68.34;93543.84;4970469;28;20046;-77
2023/01/28 11:13:01;;;;;;;14.43;10.52;;;;;;;-0.53;67.67;93557.09;4971288;28;20038;-77
2023/01/28 11:15:27;;;;;;;13.25;10.60;;;;;;;-0.61;68.58;93555.72;4969378;28;20145;-76
2023/01/28 11:17:59;;;;;;;16.20;12.32;;;;;;;-0.61;68.55;93541.88;4971269;28;20042;-77
2023/01/28 11:20:27;;;;;;;14.18;10.90;;;;;;;-0.47;68.32;93550.06;4972476;28;20042;-77
2023/01/28 11:22:53;;;;;;;14.52;11.23;;;;;;;-0.42;67.78;93548.28;4974226;28;20045;-77
2023/01/28 11:25:36;;;;;;;17.70;13.45;;;;;;;-0.68;67.15;93528.25;4971144;28;20585;-77
2023/01/28 11:28:14;;;;;;;16.35;12.93;;;;;;;-0.66;67.92;93532.19;4957519;28;20403;-77
2023/01/28 11:30:40;;;;;;;15.73;11.00;;;;;;;-0.80;68.28;93527.63;4974277;28;20418;-78
2023/01/28 11:33:21;;;;;;;16.08;12.98;;;;;;;-0.79;68.47;93547.50;4974720;28;20045;-79
2023/01/28 11:36:03;;;;;;;13.45;10.18;;;;;;;-0.59;67.36;93547.66;4975617;28;20098;-77
2023/01/28 11:38:28;;;;;;;12.45;9.75;;;;;;;-0.80;67.21;93544.09;4973172;28;20038;-77
2023/01/28 11:40:56;;;;;;;16.85;13.20;;;;;;;-0.63;67.50;93543.97;4973333;28;20050;-77
2023/01/28 11:43:25;;;;;;;17.75;14.25;;;;;;;-0.60;67.21;93548.69;4971701;28;20093;-77
2023/01/28 11:46:08;;;;;;;16.75;12.95;;;;;;;-0.59;68.18;93547.66;4973219;28;20038;-77
2023/01/28 11:49:05;;;;;;;12.52;9.82;;;;;;;-0.72;67.53;93508.88;4972059;28;20026;-75
2023/01/28 11:51:42;;;;;;;15.18;11.50;;;;;;;-0.47;67.83;93545.63;4972814;28;20034;-76
2023/01/28 11:54:42;;;;;;;15.43;11.65;;;;;;;-0.38;67.13;93544.13;4973424;28;20032;-77
2023/01/28 11:57:24;;;;;;;65.75;35.50;;;;;;;-0.20;66.49;93542.94;4946422;28;20516;-77
2023/01/28 11:59:58;;;;;;;101.05;54.88;;;;;;;-0.03;66.11;93540.16;4969713;28;20063;-77
2023/01/28 12:02:26;;;;;;;54.92;35.97;;;;;;;-0.08;65.18;93499.88;4953968;28;20058;-75
2023/01/28 12:04:58;;;;;;;90.53;44.03;;;;;;;0.28;63.93;93534.03;4970597;28;20507;-75